sensor_id;sensor_type;location;lat;lon;timestamp;P1;durP1;ratioP1;P2;durP2;ratioP2
10641;SDS011;5369;49.586;8.646;2024-01-15T00:01:05;39.03;;;16.13;;
10641;SDS011;5369;49.586;8.646;2024-01-15T00:03:31;36.93;;;16.43;;
10641;SDS011;5369;49.586;8.646;2024-01-15T00:05:57;39.30;;;16.30;;
10641;SDS011;5369;49.586;8.646;2024-01-15T00:08:23;37.73;;;16.30;;
10641;SDS011;5369;49.586;8.646;2024-01-15T00:10:49;36.73;;;16.33;;
10641;SDS011;5369;49.586;8.646;2024-01-15T00:13:16;30.47;;;14.23;;
10641;SDS011;5369;49.586;8.646;2024-01-15T00:15:42;32.13;;;15.67;;
10641;SDS011;5369;49.586;8.646;2024-01-15T00:18:08;37.07;;;15.90;;
10641;SDS011;5369;49.586;8.646;2024-01-15T00:20:35;34.60;;;16.00;;
10641;SDS011;5369;49.586;8.646;2024-01-15T00:23:01;33.27;;;15.47;;
10641;SDS011;5369;49.586;8.646;2024-01-15T00:25:27;37.23;;;16.30;;
10641;SDS011;5369;49.586;8.646;2024-01-15T00:27:53;37.70;;;16.30;;
10641;SDS011;5369;49.586;8.646;2024-01-15T00:30:19;30.80;;;14.50;;
10641;SDS011;5369;49.586;8.646;2024-01-15T00:32:46;33.33;;;15.00;;
10641;SDS011;5369;49.586;8.646;2024-01-15T00:35:12;34.77;;;15.17;;
10641;SDS011;5369;49.586;8.646;2024-01-15T00:37:38;34.80;;;14.97;;
10641;SDS011;5369;49.586;8.646;2024-01-15T00:40:04;31.50;;;14.17;;
10641;SDS011;5369;49.586;8.646;2024-01-15T00:42:33;34.37;;;14.80;;
10641;SDS011;5369;49.586;8.646;2024-01-15T00:44:59;32.13;;;14.97;;
10641;SDS011;5369;49.586;8.646;2024-01-15T00:47:26;31.83;;;14.10;;
10641;SDS011;5369;49.586;8.646;2024-01-15T00:49:52;28.67;;;13.33;;
10641;SDS011;5369;49.586;8.646;2024-01-15T00:52:18;31.13;;;14.53;;
10641;SDS011;5369;49.586;8.646;2024-01-15T00:54:44;35.63;;;14.40;;
10641;SDS011;5369;49.586;8.646;2024-01-15T00:57:10;32.20;;;14.23;;
10641;SDS011;5369;49.586;8.646;2024-01-15T00:59:36;30.57;;;14.20;;
10641;SDS011;5369;49.586;8.646;2024-01-15T01:02:03;29.37;;;13.23;;
10641;SDS011;5369;49.586;8.646;2024-01-15T01:04:29;33.50;;;14.10;;
10641;SDS011;5369;49.586;8.646;2024-01-15T01:06:55;29.93;;;14.17;;
10641;SDS011;5369;49.586;8.646;2024-01-15T01:09:21;33.17;;;14.67;;
10641;SDS011;5369;49.586;8.646;2024-01-15T01:11:47;30.53;;;13.97;;
10641;SDS011;5369;49.586;8.646;2024-01-15T01:14:13;31.70;;;14.33;;
10641;SDS011;5369;49.586;8.646;2024-01-15T01:16:40;32.13;;;14.50;;
10641;SDS011;5369;49.586;8.646;2024-01-15T01:19:06;29.87;;;13.77;;
10641;SDS011;5369;49.586;8.646;2024-01-15T01:21:33;29.93;;;14.03;;
10641;SDS011;5369;49.586;8.646;2024-01-15T01:23:59;28.80;;;13.60;;
10641;SDS011;5369;49.586;8.646;2024-01-15T01:26:25;30.10;;;13.93;;
10641;SDS011;5369;49.586;8.646;2024-01-15T01:28:51;31.37;;;14.60;;
10641;SDS011;5369;49.586;8.646;2024-01-15T01:31:17;32.27;;;14.57;;
10641;SDS011;5369;49.586;8.646;2024-01-15T01:33:43;34.17;;;14.47;;
10641;SDS011;5369;49.586;8.646;2024-01-15T01:36:10;28.37;;;13.37;;
10641;SDS011;5369;49.586;8.646;2024-01-15T01:38:36;29.83;;;13.53;;
10641;SDS011;5369;49.586;8.646;2024-01-15T01:41:02;33.10;;;14.80;;
10641;SDS011;5369;49.586;8.646;2024-01-15T01:43:29;31.23;;;14.77;;
10641;SDS011;5369;49.586;8.646;2024-01-15T01:45:55;35.00;;;15.00;;
10641;SDS011;5369;49.586;8.646;2024-01-15T01:48:23;29.33;;;13.80;;
10641;SDS011;5369;49.586;8.646;2024-01-15T01:50:51;31.57;;;14.83;;
10641;SDS011;5369;49.586;8.646;2024-01-15T01:53:17;34.90;;;15.10;;
10641;SDS011;5369;49.586;8.646;2024-01-15T01:55:43;33.07;;;14.70;;
10641;SDS011;5369;49.586;8.646;2024-01-15T01:58:09;39.17;;;18.33;;
10641;SDS011;5369;49.586;8.646;2024-01-15T02:00:36;35.47;;;16.13;;
10641;SDS011;5369;49.586;8.646;2024-01-15T02:03:02;32.77;;;15.97;;
10641;SDS011;5369;49.586;8.646;2024-01-15T02:05:28;34.20;;;15.17;;
10641;SDS011;5369;49.586;8.646;2024-01-15T02:07:54;33.73;;;15.53;;
10641;SDS011;5369;49.586;8.646;2024-01-15T02:10:21;33.57;;;15.23;;
10641;SDS011;5369;49.586;8.646;2024-01-15T02:12:47;31.47;;;14.07;;
10641;SDS011;5369;49.586;8.646;2024-01-15T02:15:14;32.07;;;14.53;;
10641;SDS011;5369;49.586;8.646;2024-01-15T02:20:25;32.97;;;15.67;;
10641;SDS011;5369;49.586;8.646;2024-01-15T02:22:51;37.40;;;15.93;;
10641;SDS011;5369;49.586;8.646;2024-01-15T02:25:18;36.47;;;15.17;;
10641;SDS011;5369;49.586;8.646;2024-01-15T02:27:44;35.90;;;15.87;;
10641;SDS011;5369;49.586;8.646;2024-01-15T02:30:11;36.50;;;15.40;;
10641;SDS011;5369;49.586;8.646;2024-01-15T02:32:38;35.07;;;15.87;;
10641;SDS011;5369;49.586;8.646;2024-01-15T02:35:04;33.20;;;15.20;;
10641;SDS011;5369;49.586;8.646;2024-01-15T02:37:30;37.70;;;16.60;;
10641;SDS011;5369;49.586;8.646;2024-01-15T02:39:56;34.27;;;15.03;;
10641;SDS011;5369;49.586;8.646;2024-01-15T02:42:22;33.67;;;15.23;;
10641;SDS011;5369;49.586;8.646;2024-01-15T02:44:48;33.30;;;15.43;;
10641;SDS011;5369;49.586;8.646;2024-01-15T02:47:15;34.73;;;15.40;;
10641;SDS011;5369;49.586;8.646;2024-01-15T02:49:41;37.97;;;15.30;;
10641;SDS011;5369;49.586;8.646;2024-01-15T02:52:07;34.23;;;14.90;;
10641;SDS011;5369;49.586;8.646;2024-01-15T02:54:33;33.30;;;15.37;;
10641;SDS011;5369;49.586;8.646;2024-01-15T02:56:59;31.20;;;14.30;;
10641;SDS011;5369;49.586;8.646;2024-01-15T02:59:25;32.80;;;14.97;;
10641;SDS011;5369;49.586;8.646;2024-01-15T03:01:51;32.43;;;14.70;;
10641;SDS011;5369;49.586;8.646;2024-01-15T03:04:18;33.93;;;14.80;;
10641;SDS011;5369;49.586;8.646;2024-01-15T03:06:44;34.80;;;15.63;;
10641;SDS011;5369;49.586;8.646;2024-01-15T03:09:10;31.53;;;13.87;;
10641;SDS011;5369;49.586;8.646;2024-01-15T03:11:37;34.77;;;14.73;;
10641;SDS011;5369;49.586;8.646;2024-01-15T03:14:03;30.60;;;14.33;;
10641;SDS011;5369;49.586;8.646;2024-01-15T03:16:30;31.97;;;15.23;;
10641;SDS011;5369;49.586;8.646;2024-01-15T03:18:56;31.27;;;14.13;;
10641;SDS011;5369;49.586;8.646;2024-01-15T03:21:22;29.73;;;14.20;;
10641;SDS011;5369;49.586;8.646;2024-01-15T03:23:48;29.83;;;13.50;;
10641;SDS011;5369;49.586;8.646;2024-01-15T03:26:14;34.13;;;15.33;;
10641;SDS011;5369;49.586;8.646;2024-01-15T03:28:41;32.03;;;14.27;;
10641;SDS011;5369;49.586;8.646;2024-01-15T03:31:07;31.87;;;14.33;;
10641;SDS011;5369;49.586;8.646;2024-01-15T03:33:33;30.43;;;13.63;;
10641;SDS011;5369;49.586;8.646;2024-01-15T03:35:59;35.53;;;14.97;;
10641;SDS011;5369;49.586;8.646;2024-01-15T03:38:27;31.53;;;14.20;;
10641;SDS011;5369;49.586;8.646;2024-01-15T03:40:54;31.97;;;13.43;;
10641;SDS011;5369;49.586;8.646;2024-01-15T03:43:20;32.20;;;13.80;;
10641;SDS011;5369;49.586;8.646;2024-01-15T03:45:46;33.70;;;14.93;;
10641;SDS011;5369;49.586;8.646;2024-01-15T03:48:12;28.40;;;12.83;;
10641;SDS011;5369;49.586;8.646;2024-01-15T03:50:38;27.33;;;12.40;;
10641;SDS011;5369;49.586;8.646;2024-01-15T03:53:04;29.23;;;13.17;;
10641;SDS011;5369;49.586;8.646;2024-01-15T03:55:30;29.37;;;13.97;;
10641;SDS011;5369;49.586;8.646;2024-01-15T03:57:57;33.43;;;14.67;;
10641;SDS011;5369;49.586;8.646;2024-01-15T04:00:23;32.70;;;15.20;;
10641;SDS011;5369;49.586;8.646;2024-01-15T04:02:49;31.87;;;14.67;;
10641;SDS011;5369;49.586;8.646;2024-01-15T04:05:15;28.33;;;13.43;;
10641;SDS011;5369;49.586;8.646;2024-01-15T04:07:41;28.63;;;13.80;;
10641;SDS011;5369;49.586;8.646;2024-01-15T04:10:08;33.57;;;14.93;;
10641;SDS011;5369;49.586;8.646;2024-01-15T04:12:34;32.17;;;15.93;;
10641;SDS011;5369;49.586;8.646;2024-01-15T04:15:00;31.47;;;14.67;;
10641;SDS011;5369;49.586;8.646;2024-01-15T04:17:26;30.73;;;14.20;;
10641;SDS011;5369;49.586;8.646;2024-01-15T04:19:53;30.60;;;14.40;;
10641;SDS011;5369;49.586;8.646;2024-01-15T04:22:21;30.80;;;16.80;;
10641;SDS011;5369;49.586;8.646;2024-01-15T04:24:47;27.23;;;14.17;;
10641;SDS011;5369;49.586;8.646;2024-01-15T04:27:14;31.00;;;14.73;;
10641;SDS011;5369;49.586;8.646;2024-01-15T04:29:40;28.53;;;13.70;;
10641;SDS011;5369;49.586;8.646;2024-01-15T04:32:06;33.93;;;15.37;;
10641;SDS011;5369;49.586;8.646;2024-01-15T04:34:33;31.83;;;14.10;;
10641;SDS011;5369;49.586;8.646;2024-01-15T04:36:59;32.50;;;13.70;;
10641;SDS011;5369;49.586;8.646;2024-01-15T04:39:25;31.67;;;13.40;;
10641;SDS011;5369;49.586;8.646;2024-01-15T04:41:51;28.60;;;14.40;;
10641;SDS011;5369;49.586;8.646;2024-01-15T04:44:18;29.15;;;14.77;;
10641;SDS011;5369;49.586;8.646;2024-01-15T04:46:44;28.17;;;12.97;;
10641;SDS011;5369;49.586;8.646;2024-01-15T04:49:10;31.40;;;14.17;;
10641;SDS011;5369;49.586;8.646;2024-01-15T04:51:37;28.20;;;13.43;;
10641;SDS011;5369;49.586;8.646;2024-01-15T04:54:03;27.37;;;13.80;;
10641;SDS011;5369;49.586;8.646;2024-01-15T04:56:29;28.50;;;13.77;;
10641;SDS011;5369;49.586;8.646;2024-01-15T04:58:55;26.13;;;12.63;;
10641;SDS011;5369;49.586;8.646;2024-01-15T05:01:22;27.00;;;13.07;;
10641;SDS011;5369;49.586;8.646;2024-01-15T05:03:48;28.57;;;13.47;;
10641;SDS011;5369;49.586;8.646;2024-01-15T05:06:15;27.63;;;13.00;;
10641;SDS011;5369;49.586;8.646;2024-01-15T05:08:41;30.80;;;14.00;;
10641;SDS011;5369;49.586;8.646;2024-01-15T05:11:07;29.03;;;13.67;;
10641;SDS011;5369;49.586;8.646;2024-01-15T05:13:33;27.03;;;12.73;;
10641;SDS011;5369;49.586;8.646;2024-01-15T05:15:59;25.63;;;12.60;;
10641;SDS011;5369;49.586;8.646;2024-01-15T05:18:25;26.40;;;12.73;;
10641;SDS011;5369;49.586;8.646;2024-01-15T05:20:52;27.97;;;13.30;;
10641;SDS011;5369;49.586;8.646;2024-01-15T05:23:18;25.73;;;13.27;;
10641;SDS011;5369;49.586;8.646;2024-01-15T05:25:44;26.60;;;12.63;;
10641;SDS011;5369;49.586;8.646;2024-01-15T05:28:10;26.33;;;12.60;;
10641;SDS011;5369;49.586;8.646;2024-01-15T05:30:37;28.93;;;13.17;;
10641;SDS011;5369;49.586;8.646;2024-01-15T05:33:03;29.00;;;13.17;;
10641;SDS011;5369;49.586;8.646;2024-01-15T05:35:29;28.63;;;12.63;;
10641;SDS011;5369;49.586;8.646;2024-01-15T05:37:55;29.30;;;13.63;;
10641;SDS011;5369;49.586;8.646;2024-01-15T05:40:21;27.03;;;12.23;;
10641;SDS011;5369;49.586;8.646;2024-01-15T05:42:47;30.83;;;13.40;;
10641;SDS011;5369;49.586;8.646;2024-01-15T05:45:14;25.77;;;13.30;;
10641;SDS011;5369;49.586;8.646;2024-01-15T05:47:40;25.27;;;13.13;;
10641;SDS011;5369;49.586;8.646;2024-01-15T05:50:06;28.27;;;13.77;;
10641;SDS011;5369;49.586;8.646;2024-01-15T05:52:32;25.87;;;12.30;;
10641;SDS011;5369;49.586;8.646;2024-01-15T05:54:58;29.47;;;13.23;;
10641;SDS011;5369;49.586;8.646;2024-01-15T05:57:24;28.30;;;13.47;;
10641;SDS011;5369;49.586;8.646;2024-01-15T05:59:51;23.83;;;12.37;;
10641;SDS011;5369;49.586;8.646;2024-01-15T06:02:17;25.63;;;12.80;;
10641;SDS011;5369;49.586;8.646;2024-01-15T06:04:43;25.00;;;12.13;;
10641;SDS011;5369;49.586;8.646;2024-01-15T06:07:10;25.25;;;13.38;;
10641;SDS011;5369;49.586;8.646;2024-01-15T06:09:36;26.77;;;13.53;;
10641;SDS011;5369;49.586;8.646;2024-01-15T06:12:03;28.80;;;13.53;;
10641;SDS011;5369;49.586;8.646;2024-01-15T06:14:30;25.00;;;12.53;;
10641;SDS011;5369;49.586;8.646;2024-01-15T06:16:56;26.40;;;13.33;;
10641;SDS011;5369;49.586;8.646;2024-01-15T06:19:22;29.83;;;14.13;;
10641;SDS011;5369;49.586;8.646;2024-01-15T06:21:48;29.33;;;14.90;;
10641;SDS011;5369;49.586;8.646;2024-01-15T06:24:14;28.27;;;13.90;;
10641;SDS011;5369;49.586;8.646;2024-01-15T06:26:43;26.23;;;13.10;;
10641;SDS011;5369;49.586;8.646;2024-01-15T06:29:09;29.43;;;13.63;;
10641;SDS011;5369;49.586;8.646;2024-01-15T06:31:35;27.70;;;13.37;;
10641;SDS011;5369;49.586;8.646;2024-01-15T06:34:01;26.27;;;13.33;;
10641;SDS011;5369;49.586;8.646;2024-01-15T06:36:27;24.97;;;13.30;;
10641;SDS011;5369;49.586;8.646;2024-01-15T06:38:53;28.07;;;13.37;;
10641;SDS011;5369;49.586;8.646;2024-01-15T06:41:20;27.52;;;15.02;;
10641;SDS011;5369;49.586;8.646;2024-01-15T06:43:46;28.80;;;14.00;;
10641;SDS011;5369;49.586;8.646;2024-01-15T06:46:12;27.40;;;13.87;;
10641;SDS011;5369;49.586;8.646;2024-01-15T06:48:38;26.93;;;13.40;;
10641;SDS011;5369;49.586;8.646;2024-01-15T06:51:04;27.75;;;15.45;;
10641;SDS011;5369;49.586;8.646;2024-01-15T06:53:30;26.13;;;14.17;;
10641;SDS011;5369;49.586;8.646;2024-01-15T06:55:57;25.87;;;13.30;;
10641;SDS011;5369;49.586;8.646;2024-01-15T06:58:23;26.93;;;13.50;;
10641;SDS011;5369;49.586;8.646;2024-01-15T07:00:49;28.57;;;14.53;;
10641;SDS011;5369;49.586;8.646;2024-01-15T07:03:15;23.87;;;13.07;;
10641;SDS011;5369;49.586;8.646;2024-01-15T07:05:41;27.58;;;13.40;;
10641;SDS011;5369;49.586;8.646;2024-01-15T07:08:07;27.17;;;13.57;;
10641;SDS011;5369;49.586;8.646;2024-01-15T07:10:33;28.80;;;13.43;;
10641;SDS011;5369;49.586;8.646;2024-01-15T07:12:59;24.60;;;13.60;;
10641;SDS011;5369;49.586;8.646;2024-01-15T07:15:26;25.67;;;13.00;;
10641;SDS011;5369;49.586;8.646;2024-01-15T07:17:52;27.07;;;13.53;;
10641;SDS011;5369;49.586;8.646;2024-01-15T07:20:18;25.23;;;13.43;;
10641;SDS011;5369;49.586;8.646;2024-01-15T07:22:44;28.70;;;14.47;;
10641;SDS011;5369;49.586;8.646;2024-01-15T07:25:11;26.37;;;14.00;;
10641;SDS011;5369;49.586;8.646;2024-01-15T07:27:38;27.80;;;13.97;;
10641;SDS011;5369;49.586;8.646;2024-01-15T07:30:04;27.40;;;13.17;;
10641;SDS011;5369;49.586;8.646;2024-01-15T07:32:31;28.60;;;14.30;;
10641;SDS011;5369;49.586;8.646;2024-01-15T07:34:58;25.63;;;13.47;;
10641;SDS011;5369;49.586;8.646;2024-01-15T07:37:24;25.60;;;14.23;;
10641;SDS011;5369;49.586;8.646;2024-01-15T07:39:50;28.20;;;13.30;;
10641;SDS011;5369;49.586;8.646;2024-01-15T07:42:17;26.57;;;13.53;;
10641;SDS011;5369;49.586;8.646;2024-01-15T07:44:43;26.87;;;14.00;;
10641;SDS011;5369;49.586;8.646;2024-01-15T07:47:10;27.07;;;13.63;;
10641;SDS011;5369;49.586;8.646;2024-01-15T07:49:36;30.13;;;14.73;;
10641;SDS011;5369;49.586;8.646;2024-01-15T07:52:02;27.90;;;14.13;;
10641;SDS011;5369;49.586;8.646;2024-01-15T07:54:29;25.07;;;13.60;;
10641;SDS011;5369;49.586;8.646;2024-01-15T07:56:59;25.33;;;13.30;;
10641;SDS011;5369;49.586;8.646;2024-01-15T07:59:26;28.30;;;14.00;;
10641;SDS011;5369;49.586;8.646;2024-01-15T08:01:52;28.63;;;14.23;;
10641;SDS011;5369;49.586;8.646;2024-01-15T08:04:19;29.30;;;14.23;;
10641;SDS011;5369;49.586;8.646;2024-01-15T08:06:45;27.50;;;14.83;;
10641;SDS011;5369;49.586;8.646;2024-01-15T08:09:11;29.73;;;14.63;;
10641;SDS011;5369;49.586;8.646;2024-01-15T08:11:41;31.97;;;15.90;;
10641;SDS011;5369;49.586;8.646;2024-01-15T08:14:08;26.20;;;14.07;;
10641;SDS011;5369;49.586;8.646;2024-01-15T08:16:34;27.20;;;14.20;;
10641;SDS011;5369;49.586;8.646;2024-01-15T08:19:00;27.53;;;13.97;;
10641;SDS011;5369;49.586;8.646;2024-01-15T08:21:27;28.37;;;14.47;;
10641;SDS011;5369;49.586;8.646;2024-01-15T08:24:01;28.00;;;13.93;;
10641;SDS011;5369;49.586;8.646;2024-01-15T08:26:28;25.07;;;13.37;;
10641;SDS011;5369;49.586;8.646;2024-01-15T08:28:55;26.40;;;14.00;;
10641;SDS011;5369;49.586;8.646;2024-01-15T08:31:21;26.83;;;15.20;;
10641;SDS011;5369;49.586;8.646;2024-01-15T08:33:47;28.70;;;14.40;;
10641;SDS011;5369;49.586;8.646;2024-01-15T08:36:13;26.07;;;13.90;;
10641;SDS011;5369;49.586;8.646;2024-01-15T08:38:39;31.17;;;15.00;;
10641;SDS011;5369;49.586;8.646;2024-01-15T08:41:05;31.57;;;14.53;;
10641;SDS011;5369;49.586;8.646;2024-01-15T08:43:34;28.23;;;14.87;;
10641;SDS011;5369;49.586;8.646;2024-01-15T08:46:00;28.67;;;15.03;;
10641;SDS011;5369;49.586;8.646;2024-01-15T08:48:27;28.23;;;14.00;;
10641;SDS011;5369;49.586;8.646;2024-01-15T08:50:53;28.00;;;14.83;;
10641;SDS011;5369;49.586;8.646;2024-01-15T08:53:20;26.23;;;13.93;;
10641;SDS011;5369;49.586;8.646;2024-01-15T08:55:46;30.87;;;15.77;;
10641;SDS011;5369;49.586;8.646;2024-01-15T08:58:13;28.33;;;15.17;;
10641;SDS011;5369;49.586;8.646;2024-01-15T09:00:39;29.17;;;15.03;;
10641;SDS011;5369;49.586;8.646;2024-01-15T09:03:05;27.57;;;14.77;;
10641;SDS011;5369;49.586;8.646;2024-01-15T09:05:33;28.13;;;14.67;;
10641;SDS011;5369;49.586;8.646;2024-01-15T09:07:59;27.53;;;14.67;;
10641;SDS011;5369;49.586;8.646;2024-01-15T09:10:25;27.30;;;15.07;;
10641;SDS011;5369;49.586;8.646;2024-01-15T09:12:51;30.33;;;14.97;;
10641;SDS011;5369;49.586;8.646;2024-01-15T09:15:18;30.70;;;16.20;;
10641;SDS011;5369;49.586;8.646;2024-01-15T09:17:45;28.67;;;15.10;;
10641;SDS011;5369;49.586;8.646;2024-01-15T09:20:11;26.90;;;15.13;;
10641;SDS011;5369;49.586;8.646;2024-01-15T09:22:38;27.50;;;15.13;;
10641;SDS011;5369;49.586;8.646;2024-01-15T09:25:08;29.30;;;15.87;;
10641;SDS011;5369;49.586;8.646;2024-01-15T09:27:37;28.60;;;15.13;;
10641;SDS011;5369;49.586;8.646;2024-01-15T09:30:03;28.13;;;16.33;;
10641;SDS011;5369;49.586;8.646;2024-01-15T09:32:31;29.13;;;15.43;;
10641;SDS011;5369;49.586;8.646;2024-01-15T09:34:58;29.33;;;14.97;;
10641;SDS011;5369;49.586;8.646;2024-01-15T09:37:24;26.00;;;14.37;;
10641;SDS011;5369;49.586;8.646;2024-01-15T09:39:50;26.70;;;14.63;;
10641;SDS011;5369;49.586;8.646;2024-01-15T09:42:16;33.03;;;15.93;;
10641;SDS011;5369;49.586;8.646;2024-01-15T09:44:43;29.67;;;16.20;;
10641;SDS011;5369;49.586;8.646;2024-01-15T09:47:10;26.20;;;15.60;;
10641;SDS011;5369;49.586;8.646;2024-01-15T09:49:37;30.90;;;15.23;;
10641;SDS011;5369;49.586;8.646;2024-01-15T09:52:05;29.47;;;15.20;;
10641;SDS011;5369;49.586;8.646;2024-01-15T09:54:33;29.23;;;16.07;;
10641;SDS011;5369;49.586;8.646;2024-01-15T09:57:02;32.03;;;16.33;;
10641;SDS011;5369;49.586;8.646;2024-01-15T09:59:29;27.97;;;15.27;;
10641;SDS011;5369;49.586;8.646;2024-01-15T10:01:55;28.07;;;14.93;;
10641;SDS011;5369;49.586;8.646;2024-01-15T10:04:22;29.93;;;15.97;;
10641;SDS011;5369;49.586;8.646;2024-01-15T10:06:50;27.23;;;15.10;;
10641;SDS011;5369;49.586;8.646;2024-01-15T10:09:17;28.93;;;16.03;;
10641;SDS011;5369;49.586;8.646;2024-01-15T10:11:43;24.57;;;14.10;;
10641;SDS011;5369;49.586;8.646;2024-01-15T10:14:10;30.20;;;16.17;;
10641;SDS011;5369;49.586;8.646;2024-01-15T10:16:40;26.13;;;14.53;;
10641;SDS011;5369;49.586;8.646;2024-01-15T10:19:07;23.60;;;13.60;;
10641;SDS011;5369;49.586;8.646;2024-01-15T10:21:33;25.50;;;14.30;;
10641;SDS011;5369;49.586;8.646;2024-01-15T10:24:03;26.37;;;15.10;;
10641;SDS011;5369;49.586;8.646;2024-01-15T10:26:30;24.70;;;14.07;;
10641;SDS011;5369;49.586;8.646;2024-01-15T10:28:58;27.97;;;14.07;;
10641;SDS011;5369;49.586;8.646;2024-01-15T10:31:27;26.23;;;14.00;;
10641;SDS011;5369;49.586;8.646;2024-01-15T10:33:53;26.17;;;14.10;;
10641;SDS011;5369;49.586;8.646;2024-01-15T10:36:20;27.47;;;14.30;;
10641;SDS011;5369;49.586;8.646;2024-01-15T10:38:46;25.20;;;14.27;;
10641;SDS011;5369;49.586;8.646;2024-01-15T10:41:12;26.37;;;13.97;;
10641;SDS011;5369;49.586;8.646;2024-01-15T10:43:39;24.83;;;13.97;;
10641;SDS011;5369;49.586;8.646;2024-01-15T10:46:07;25.47;;;15.17;;
10641;SDS011;5369;49.586;8.646;2024-01-15T10:48:34;27.60;;;15.13;;
10641;SDS011;5369;49.586;8.646;2024-01-15T10:51:01;28.63;;;14.13;;
10641;SDS011;5369;49.586;8.646;2024-01-15T10:53:35;29.93;;;14.90;;
10641;SDS011;5369;49.586;8.646;2024-01-15T10:56:02;27.60;;;15.47;;
10641;SDS011;5369;49.586;8.646;2024-01-15T10:58:29;24.23;;;15.47;;
10641;SDS011;5369;49.586;8.646;2024-01-15T11:00:57;25.77;;;15.07;;
10641;SDS011;5369;49.586;8.646;2024-01-15T11:03:23;23.67;;;14.13;;
10641;SDS011;5369;49.586;8.646;2024-01-15T11:05:49;22.40;;;13.53;;
10641;SDS011;5369;49.586;8.646;2024-01-15T11:08:17;23.43;;;13.23;;
10641;SDS011;5369;49.586;8.646;2024-01-15T11:10:47;25.30;;;14.20;;
10641;SDS011;5369;49.586;8.646;2024-01-15T11:16:12;23.20;;;13.53;;
10641;SDS011;5369;49.586;8.646;2024-01-15T11:21:23;27.23;;;14.33;;
10641;SDS011;5369;49.586;8.646;2024-01-15T11:23:57;31.93;;;15.93;;
10641;SDS011;5369;49.586;8.646;2024-01-15T11:26:32;24.53;;;14.70;;
10641;SDS011;5369;49.586;8.646;2024-01-15T11:28:59;20.53;;;12.33;;
10641;SDS011;5369;49.586;8.646;2024-01-15T11:31:29;25.47;;;13.37;;
10641;SDS011;5369;49.586;8.646;2024-01-15T11:34:15;25.13;;;13.83;;
10641;SDS011;5369;49.586;8.646;2024-01-15T11:41:56;20.73;;;11.83;;
10641;SDS011;5369;49.586;8.646;2024-01-15T11:44:23;23.27;;;13.33;;
10641;SDS011;5369;49.586;8.646;2024-01-15T11:46:59;21.83;;;12.43;;
10641;SDS011;5369;49.586;8.646;2024-01-15T11:49:48;24.30;;;13.27;;
10641;SDS011;5369;49.586;8.646;2024-01-15T11:52:20;26.73;;;14.27;;
10641;SDS011;5369;49.586;8.646;2024-01-15T11:54:49;24.60;;;13.50;;
10641;SDS011;5369;49.586;8.646;2024-01-15T11:57:22;20.77;;;13.17;;
10641;SDS011;5369;49.586;8.646;2024-01-15T11:59:52;21.90;;;13.43;;
10641;SDS011;5369;49.586;8.646;2024-01-15T12:02:18;21.93;;;12.37;;
10641;SDS011;5369;49.586;8.646;2024-01-15T12:04:44;21.70;;;11.20;;
10641;SDS011;5369;49.586;8.646;2024-01-15T12:07:10;17.73;;;10.73;;
10641;SDS011;5369;49.586;8.646;2024-01-15T12:09:42;16.13;;;10.37;;
10641;SDS011;5369;49.586;8.646;2024-01-15T12:12:09;15.40;;;10.37;;
10641;SDS011;5369;49.586;8.646;2024-01-15T12:14:39;17.80;;;10.67;;
10641;SDS011;5369;49.586;8.646;2024-01-15T12:17:06;19.53;;;11.33;;
10641;SDS011;5369;49.586;8.646;2024-01-15T12:19:32;20.60;;;12.23;;
10641;SDS011;5369;49.586;8.646;2024-01-15T12:21:59;21.87;;;11.97;;
10641;SDS011;5369;49.586;8.646;2024-01-15T12:24:25;20.03;;;10.27;;
10641;SDS011;5369;49.586;8.646;2024-01-15T12:26:51;17.20;;;10.63;;
10641;SDS011;5369;49.586;8.646;2024-01-15T12:29:18;19.37;;;11.60;;
10641;SDS011;5369;49.586;8.646;2024-01-15T12:31:46;16.57;;;10.40;;
10641;SDS011;5369;49.586;8.646;2024-01-15T12:34:13;15.07;;;9.70;;
10641;SDS011;5369;49.586;8.646;2024-01-15T12:36:40;14.53;;;9.30;;
10641;SDS011;5369;49.586;8.646;2024-01-15T12:39:11;15.83;;;9.63;;
10641;SDS011;5369;49.586;8.646;2024-01-15T12:41:38;18.73;;;11.37;;
10641;SDS011;5369;49.586;8.646;2024-01-15T12:44:04;21.13;;;11.33;;
10641;SDS011;5369;49.586;8.646;2024-01-15T12:46:31;18.10;;;11.57;;
10641;SDS011;5369;49.586;8.646;2024-01-15T12:48:57;20.50;;;12.80;;
10641;SDS011;5369;49.586;8.646;2024-01-15T12:51:26;16.27;;;10.33;;
10641;SDS011;5369;49.586;8.646;2024-01-15T12:53:52;17.70;;;10.47;;
10641;SDS011;5369;49.586;8.646;2024-01-15T12:56:19;17.20;;;10.73;;
10641;SDS011;5369;49.586;8.646;2024-01-15T12:58:45;17.17;;;11.40;;
10641;SDS011;5369;49.586;8.646;2024-01-15T13:01:12;15.80;;;10.40;;
10641;SDS011;5369;49.586;8.646;2024-01-15T13:03:38;16.80;;;10.67;;
10641;SDS011;5369;49.586;8.646;2024-01-15T13:06:04;15.17;;;10.13;;
10641;SDS011;5369;49.586;8.646;2024-01-15T13:08:30;18.60;;;12.33;;
10641;SDS011;5369;49.586;8.646;2024-01-15T13:10:56;16.53;;;11.23;;
10641;SDS011;5369;49.586;8.646;2024-01-15T13:13:23;15.90;;;10.50;;
10641;SDS011;5369;49.586;8.646;2024-01-15T13:15:50;16.53;;;10.40;;
10641;SDS011;5369;49.586;8.646;2024-01-15T13:18:16;17.30;;;10.13;;
10641;SDS011;5369;49.586;8.646;2024-01-15T13:20:42;15.13;;;10.13;;
10641;SDS011;5369;49.586;8.646;2024-01-15T13:23:08;14.73;;;9.87;;
10641;SDS011;5369;49.586;8.646;2024-01-15T13:25:35;17.17;;;11.10;;
10641;SDS011;5369;49.586;8.646;2024-01-15T13:28:03;16.80;;;10.83;;
10641;SDS011;5369;49.586;8.646;2024-01-15T13:30:30;16.13;;;10.10;;
10641;SDS011;5369;49.586;8.646;2024-01-15T13:32:56;14.80;;;10.23;;
10641;SDS011;5369;49.586;8.646;2024-01-15T13:35:24;15.13;;;9.77;;
10641;SDS011;5369;49.586;8.646;2024-01-15T13:37:50;17.67;;;10.43;;
10641;SDS011;5369;49.586;8.646;2024-01-15T13:40:16;16.17;;;10.37;;
10641;SDS011;5369;49.586;8.646;2024-01-15T13:42:45;16.70;;;10.30;;
10641;SDS011;5369;49.586;8.646;2024-01-15T13:45:12;16.20;;;10.03;;
10641;SDS011;5369;49.586;8.646;2024-01-15T13:47:42;17.10;;;10.57;;
10641;SDS011;5369;49.586;8.646;2024-01-15T13:50:10;17.70;;;10.37;;
10641;SDS011;5369;49.586;8.646;2024-01-15T13:52:37;16.53;;;10.03;;
10641;SDS011;5369;49.586;8.646;2024-01-15T13:55:03;14.50;;;9.60;;
10641;SDS011;5369;49.586;8.646;2024-01-15T13:57:29;21.40;;;12.53;;
10641;SDS011;5369;49.586;8.646;2024-01-15T13:59:55;19.03;;;10.90;;
10641;SDS011;5369;49.586;8.646;2024-01-15T14:02:21;15.47;;;10.10;;
10641;SDS011;5369;49.586;8.646;2024-01-15T14:04:48;16.53;;;10.40;;
10641;SDS011;5369;49.586;8.646;2024-01-15T14:07:14;16.33;;;9.83;;
10641;SDS011;5369;49.586;8.646;2024-01-15T14:09:40;16.53;;;9.90;;
10641;SDS011;5369;49.586;8.646;2024-01-15T14:12:07;15.73;;;10.40;;
10641;SDS011;5369;49.586;8.646;2024-01-15T14:14:33;16.40;;;9.20;;
10641;SDS011;5369;49.586;8.646;2024-01-15T14:16:59;15.33;;;9.13;;
10641;SDS011;5369;49.586;8.646;2024-01-15T14:19:25;16.57;;;9.77;;
10641;SDS011;5369;49.586;8.646;2024-01-15T14:21:52;13.53;;;8.80;;
10641;SDS011;5369;49.586;8.646;2024-01-15T14:24:18;15.97;;;10.10;;
10641;SDS011;5369;49.586;8.646;2024-01-15T14:26:44;15.53;;;9.53;;
10641;SDS011;5369;49.586;8.646;2024-01-15T14:29:11;14.73;;;9.23;;
10641;SDS011;5369;49.586;8.646;2024-01-15T14:31:37;14.73;;;9.00;;
10641;SDS011;5369;49.586;8.646;2024-01-15T14:34:03;13.50;;;8.70;;
10641;SDS011;5369;49.586;8.646;2024-01-15T14:36:29;13.63;;;8.50;;
10641;SDS011;5369;49.586;8.646;2024-01-15T14:38:55;14.57;;;8.90;;
10641;SDS011;5369;49.586;8.646;2024-01-15T14:41:21;12.97;;;8.23;;
10641;SDS011;5369;49.586;8.646;2024-01-15T14:43:47;11.80;;;7.50;;
10641;SDS011;5369;49.586;8.646;2024-01-15T14:46:13;11.63;;;7.90;;